Time;durP1;ratioP1;P1;durP2;ratioP2;P2;SDS_P1;SDS_P2;PMS_P1;PMS_P2;Temp;Humidity;BMP_temperature;BMP_pressure;BME280_temperature;BME280_humidity;BME280_pressure;Samples;Min_cycle;Max_cycle;Signal;HPM_P1;HPM_P2
2022/08/26 00:02:28;;;;;;;;;;;;;;;;;;10540991;28;20283;-61
2022/08/26 00:07:30;;;;;;;;;;;;;;;;;;10541699;28;19924;-61
2022/08/26 00:12:33;;;;;;;;;;;;;;;;;;10541464;28;19924;-61
2022/08/26 00:17:38;;;;;;;;;;;;;;;;;;10540615;28;19977;-61
2022/08/26 00:22:41;;;;;;;;;;;;;;;;;;10540485;28;19931;-62
2022/08/26 00:27:43;;;;;;;;;;;;;;;;;;10540452;28;19930;-61
2022/08/26 00:32:45;;;;;;;;;;;;;;;;;;10540923;28;19928;-61
2022/08/26 00:37:47;;;;;;;;;;;;;;;;;;10540320;28;20355;-61
2022/08/26 00:42:49;;;;;;;;;;;;;;;;;;10539920;28;20317;-61
2022/08/26 00:47:51;;;;;;;;;;;;;;;;;;10539946;28;19924;-63
2022/08/26 00:52:53;;;;;;;;;;;;;;;;;;10543289;28;19924;-64
2022/08/26 00:57:56;;;;;;;;;;;;;;;;;;10549148;28;19928;-63
2022/08/26 01:02:58;;;;;;;;;;;;;;;;;;10548242;28;19924;-63
2022/08/26 01:08:00;;;;;;;;;;;;;;;;;;10548118;28;19924;-63
2022/08/26 01:13:02;;;;;;;;;;;;;;;;;;10547995;28;20401;-63
2022/08/26 01:18:04;;;;;;;;;;;;;;;;;;10547793;28;20374;-63
2022/08/26 01:23:06;;;;;;;;;;;;;;;;;;10548117;28;19928;-63
2022/08/26 01:28:09;;;;;;;;;;;;;;;;;;10529808;28;19924;-63
2022/08/26 01:33:11;;;;;;;;;;;;;;;;;;10547765;28;19935;-63
2022/08/26 01:38:14;;;;;;;;;;;;;;;;;;10547621;28;19925;-63
2022/08/26 01:43:16;;;;;;;;;;;;;;;;;;10529371;28;19928;-63
2022/08/26 01:48:18;;;;;;;;;;;;;;;;;;10546540;28;20367;-63
2022/08/26 01:53:20;;;;;;;;;;;;;;;;;;10546997;28;19924;-63
2022/08/26 01:58:22;;;;;;;;;;;;;;;;;;10546758;28;19924;-63
2022/08/26 02:03:25;;;;;;;;;;;;;;;;;;10544894;28;20367;-63
2022/08/26 02:08:27;;;;;;;;;;;;;;;;;;10527991;28;20015;-63
2022/08/26 02:13:30;;;;;;;;;;;;;;;;;;10546252;28;19935;-63
2022/08/26 02:18:32;;;;;;;;;;;;;;;;;;10513550;22;19928;-63
2022/08/26 02:23:34;;;;;;;;;;;;;;;;;;10503923;28;19925;-63
2022/08/26 02:28:36;;;;;;;;;;;;;;;;;;10503810;28;19924;-63
2022/08/26 02:33:38;;;;;;;;;;;;;;;;;;10502946;28;20279;-63
2022/08/26 02:38:44;;;;;;;;;;;;;;;;;;10503416;28;19931;-63
2022/08/26 02:43:47;;;;;;;;;;;;;;;;;;10502972;28;19982;-63
2022/08/26 02:48:49;;;;;;;;;;;;;;;;;;10502336;28;19925;-63
2022/08/26 02:53:51;;;;;;;;;;;;;;;;;;10502113;28;20279;-63
2022/08/26 02:58:53;;;;;;;;;;;;;;;;;;10502421;28;19925;-63
2022/08/26 03:03:56;;;;;;;;;;;;;;;;;;10502796;28;19935;-64
2022/08/26 03:08:58;;;;;;;;;;;;;;;;;;10502128;28;19925;-63
2022/08/26 03:14:00;;;;;;;;;;;;;;;;;;10501725;28;19930;-62
2022/08/26 03:19:02;;;;;;;;;;;;;;;;;;10501692;28;19974;-61
2022/08/26 03:24:04;;;;;;;;;;;;;;;;;;10500765;28;19978;-61
2022/08/26 03:34:27;;;;;;;;;;;;;;;;;;10501025;28;19935;-61
2022/08/26 03:39:29;;;;;;;;;;;;;;;;;;10500812;28;19924;-61
2022/08/26 03:44:32;;;;;;;;;;;;;;;;;;10500528;28;19924;-61
2022/08/26 03:49:34;;;;;;;;;;;;;;;;;;10499823;28;19924;-61
2022/08/26 03:54:36;;;;;;;;;;;;;;;;;;10500256;28;19924;-61
2022/08/26 03:59:38;;;;;;;;;;;;;;;;;;10499423;28;20367;-61
2022/08/26 04:04:42;;;;;;;;;;;;;;;;;;10499784;28;19924;-61
2022/08/26 04:09:44;;;;;;;;;;;;;;;;;;10499141;28;19924;-61
2022/08/26 04:14:46;;;;;;;;;;;;;;;;;;10498832;28;20291;-61
2022/08/26 04:19:48;;;;;;;;;;;;;;;;;;10498848;28;20311;-61
2022/08/26 04:24:51;;;;;;;;;;;;;;;;;;10499281;28;19931;-61
2022/08/26 04:29:53;;;;;;;;;;;;;;;;;;10499033;28;19930;-61
2022/08/26 04:34:56;;;;;;;;;;;;;;;;;;10499133;28;19985;-61
2022/08/26 04:39:58;;;;;;;;;;;;;;;;;;10499576;28;19932;-61
2022/08/26 04:45:00;;;;;;;;;;;;;;;;;;10498821;28;19931;-61
2022/08/26 04:50:02;;;;;;;;;;;;;;;;;;10498151;28;19947;-61
2022/08/26 04:55:06;;;;;;;;;;;;;;;;;;10499022;28;19924;-61
2022/08/26 05:00:11;;;;;;;;;;;;;;;;;;10498613;28;19970;-61
2022/08/26 05:05:13;;;;;;;;;;;;;;;;;;10497781;28;20273;-61
2022/08/26 05:10:15;;;;;;;;;;;;;;;;;;10498357;28;19924;-61
2022/08/26 05:15:17;;;;;;;;;;;;;;;;;;10498103;28;19935;-61
2022/08/26 05:20:19;;;;;;;;;;;;;;;;;;10497523;28;19925;-61
2022/08/26 05:25:26;;;;;;;;;;;;;;;;;;10498028;28;19924;-61
2022/08/26 05:30:28;;;;;;;;;;;;;;;;;;10497304;28;19929;-61
2022/08/26 05:35:32;;;;;;;;;;;;;;;;;;10497881;28;19925;-61
2022/08/26 05:40:34;;;;;;;;;;;;;;;;;;10501821;28;19925;-61
2022/08/26 05:45:37;;;;;;;;;;;;;;;;;;10505292;28;19924;-61
2022/08/26 05:50:43;;;;;;;;;;;;;;;;;;10505062;28;19930;-61
2022/08/26 05:55:45;;;;;;;;;;;;;;;;;;10505043;28;19924;-61
2022/08/26 06:00:48;;;;;;;;;;;;;;;;;;10504119;28;19924;-61
2022/08/26 06:05:50;;;;;;;;;;;;;;;;;;10504647;28;19932;-61
2022/08/26 06:10:52;;;;;;;;;;;;;;;;;;10504398;28;19925;-61
2022/08/26 06:15:54;;;;;;;;;;;;;;;;;;10503500;28;20031;-61
2022/08/26 06:20:56;;;;;;;;;;;;;;;;;;10504120;28;19931;-61
2022/08/26 06:25:59;;;;;;;;;;;;;;;;;;10503784;28;19931;-61
2022/08/26 06:31:01;;;;;;;;;;;;;;;;;;10503916;28;19924;-61
2022/08/26 06:36:03;;;;;;;;;;;;;;;;;;10503493;28;20016;-61
2022/08/26 06:41:05;;;;;;;;;;;;;;;;;;10503371;28;19931;-61
2022/08/26 06:46:07;;;;;;;;;;;;;;;;;;10502461;28;20291;-61
2022/08/26 06:51:09;;;;;;;;;;;;;;;;;;10484766;28;19931;-61
2022/08/26 06:56:11;;;;;;;;;;;;;;;;;;10503031;28;19931;-61
2022/08/26 07:01:14;;;;;;;;;;;;;;;;;;10502532;28;19931;-61
2022/08/26 07:06:18;;;;;;;;;;;;;;;;;;10502246;28;19972;-61
2022/08/26 07:11:20;;;;;;;;;;;;;;;;;;10501451;28;20394;-61
2022/08/26 07:16:22;;;;;;;;;;;;;;;;;;10501380;28;19924;-61
2022/08/26 07:21:24;;;;;;;;;;;;;;;;;;10501033;28;19978;-61
2022/08/26 07:26:26;;;;;;;;;;;;;;;;;;10501378;28;19931;-61
2022/08/26 07:31:29;;;;;;;;;;;;;;;;;;10501214;28;19924;-61
2022/08/26 07:36:35;;;;;;;;;;;;;;;;;;10501034;28;19931;-63
2022/08/26 07:41:37;;;;;;;;;;;;;;;;;;10500791;28;19939;-63
2022/08/26 07:46:39;;;;;;;;;;;;;;;;;;10499937;28;19924;-64
2022/08/26 07:51:44;;;;;;;;;;;;;;;;;;10500495;28;19925;-63
2022/08/26 07:56:47;;;;;;;;;;;;;;;;;;10500334;28;19933;-63
2022/08/26 08:01:49;;;;;;;;;;;;;;;;;;10499429;28;19928;-64
2022/08/26 08:06:51;;;;;;;;;;;;;;;;;;10499213;28;20279;-64
2022/08/26 08:11:53;;;;;;;;;;;;;;;;;;10499098;28;19924;-64
2022/08/26 08:16:55;;;;;;;;;;;;;;;;;;10499063;28;19924;-63
2022/08/26 08:21:57;;;;;;;;;;;;;;;;;;10498859;28;20391;-63
2022/08/26 08:27:00;;;;;;;;;;;;;;;;;;10498855;28;19924;-63
2022/08/26 08:32:03;;;;;;;;;;;;;;;;;;10499152;28;19925;-64
2022/08/26 08:37:06;;;;;;;;;;;;;;;;;;10499144;28;19998;-63
2022/08/26 08:42:11;;;;;;;;;;;;;;;;;;10498986;28;19925;-64
2022/08/26 08:47:13;;;;;;;;;;;;;;;;;;10498225;28;20371;-64
2022/08/26 08:52:15;;;;;;;;;;;;;;;;;;10498836;28;19924;-62
2022/08/26 08:57:17;;;;;;;;;;;;;;;;;;10498342;28;20276;-61
2022/08/26 09:02:19;;;;;;;;;;;;;;;;;;10498601;28;19925;-61
2022/08/26 09:07:21;;;;;;;;;;;;;;;;;;10498342;28;20379;-62
2022/08/26 09:12:24;;;;;;;;;;;;;;;;;;10498519;28;20295;-62
2022/08/26 09:17:31;;;;;;;;;;;;;;;;;;10505992;28;20367;-62
2022/08/26 09:22:33;;;;;;;;;;;;;;;;;;10506451;28;19928;-62
2022/08/26 09:27:36;;;;;;;;;;;;;;;;;;10506123;28;19935;-62
2022/08/26 09:32:38;;;;;;;;;;;;;;;;;;10505908;28;19929;-61
2022/08/26 09:37:40;;;;;;;;;;;;;;;;;;10505793;28;19931;-62
2022/08/26 09:42:42;;;;;;;;;;;;;;;;;;10504835;28;20359;-62
2022/08/26 09:47:44;;;;;;;;;;;;;;;;;;10505296;28;19925;-62
2022/08/26 09:52:46;;;;;;;;;;;;;;;;;;10505171;28;19924;-62
2022/08/26 09:57:50;;;;;;;;;;;;;;;;;;10504281;28;20287;-62
2022/08/26 10:02:52;;;;;;;;;;;;;;;;;;10504723;28;19959;-62
2022/08/26 10:07:57;;;;;;;;;;;;;;;;;;10504517;28;19924;-62
2022/08/26 10:12:59;;;;;;;;;;;;;;;;;;10504352;28;19928;-62
2022/08/26 10:18:01;;;;;;;;;;;;;;;;;;10503982;28;19924;-62
2022/08/26 10:23:03;;;;;;;;;;;;;;;;;;10503970;28;19925;-61
2022/08/26 10:28:05;;;;;;;;;;;;;;;;;;10503121;28;19931;-62
2022/08/26 10:33:07;;;;;;;;;;;;;;;;;;10503757;28;19924;-62
2022/08/26 10:38:10;;;;;;;;;;;;;;;;;;10504026;28;19924;-62
2022/08/26 10:43:14;;;;;;;;;;;;;;;;;;10502664;28;20298;-64
2022/08/26 10:48:16;;;;;;;;;;;;;;;;;;10502449;28;19924;-64
2022/08/26 10:53:18;;;;;;;;;;;;;;;;;;10502316;28;19924;-64
2022/08/26 10:58:20;;;;;;;;;;;;;;;;;;10502748;28;19924;-63
2022/08/26 11:03:27;;;;;;;;;;;;;;;;;;10502476;28;19924;-62
2022/08/26 11:08:30;;;;;;;;;;;;;;;;;;10502367;28;19928;-62
2022/08/26 11:13:32;;;;;;;;;;;;;;;;;;10502129;28;19924;-62
2022/08/26 11:18:34;;;;;;;;;;;;;;;;;;10501644;28;19925;-64
2022/08/26 11:23:36;;;;;;;;;;;;;;;;;;10501606;28;19931;-65
2022/08/26 11:28:38;;;;;;;;;;;;;;;;;;10500826;28;20279;-63
2022/08/26 11:33:40;;;;;;;;;;;;;;;;;;10501261;28;19998;-64
2022/08/26 11:38:42;;;;;;;;;;;;;;;;;;10500058;28;19932;-63
2022/08/26 11:43:48;;;;;;;;;;;;;;;;;;10500801;28;19925;-62
2022/08/26 11:48:50;;;;;;;;;;;;;;;;;;10500651;28;19924;-62
2022/08/26 11:53:52;;;;;;;;;;;;;;;;;;10500486;28;19924;-63
2022/08/26 11:58:55;;;;;;;;;;;;;;;;;;10499608;28;19924;-63
2022/08/26 12:03:57;;;;;;;;;;;;;;;;;;10499351;28;20390;-63
2022/08/26 12:08:59;;;;;;;;;;;;;;;;;;10500221;28;19959;-63
2022/08/26 12:14:01;;;;;;;;;;;;;;;;;;10498958;28;20375;-64
2022/08/26 12:19:03;;;;;;;;;;;;;;;;;;10499061;28;20473;-63
2022/08/26 12:24:05;;;;;;;;;;;;;;;;;;10499456;28;19932;-63
2022/08/26 12:29:07;;;;;;;;;;;;;;;;;;10499402;28;19932;-63
2022/08/26 12:34:21;;;;;;;;;;;;;;;;;;10483236;28;20015;-63
2022/08/26 12:39:23;;;;;;;;;;;;;;;;;;10498499;28;20284;-62
2022/08/26 12:44:25;;;;;;;;;;;;;;;;;;10498345;28;19931;-63
2022/08/26 12:49:27;;;;;;;;;;;;;;;;;;10498589;28;19931;-63
2022/08/26 12:54:57;;;;;;;;;;;;;;;;;;10498505;28;19925;-63
2022/08/26 12:59:57;;;;;;;;;;;;;;;;;;10498084;28;19925;-63
2022/08/26 13:04:59;;;;;;;;;;;;;;;;;;10497920;28;19935;-63
2022/08/26 13:10:02;;;;;;;;;;;;;;;;;;10497847;28;20458;-63
2022/08/26 13:15:04;;;;;;;;;;;;;;;;;;10497557;28;19925;-63
2022/08/26 13:20:06;;;;;;;;;;;;;;;;;;10498292;28;19924;-63
2022/08/26 13:25:08;;;;;;;;;;;;;;;;;;10497472;28;19925;-63
2022/08/26 13:30:11;;;;;;;;;;;;;;;;;;10498089;28;19925;-63
2022/08/26 13:35:13;;;;;;;;;;;;;;;;;;10497711;28;19924;-63
2022/08/26 13:40:15;;;;;;;;;;;;;;;;;;10497255;28;19925;-63
2022/08/26 13:45:17;;;;;;;;;;;;;;;;;;10497668;28;19930;-63
2022/08/26 13:50:19;;;;;;;;;;;;;;;;;;10497017;28;20276;-63
2022/08/26 13:55:22;;;;;;;;;;;;;;;;;;10496907;28;20375;-63
2022/08/26 14:00:24;;;;;;;;;;;;;;;;;;10499636;28;19931;-63
2022/08/26 14:05:26;;;;;;;;;;;;;;;;;;10504745;28;19924;-63
2022/08/26 14:10:28;;;;;;;;;;;;;;;;;;10504528;28;19924;-64
2022/08/26 14:15:30;;;;;;;;;;;;;;;;;;10504234;28;19925;-63
2022/08/26 14:20:32;;;;;;;;;;;;;;;;;;10504268;28;19931;-63
2022/08/26 14:25:34;;;;;;;;;;;;;;;;;;10503358;28;19925;-63
2022/08/26 14:30:37;;;;;;;;;;;;;;;;;;10511128;22;20398;-66
2022/08/26 14:35:39;;;;;;;;;;;;;;;;;;10504229;28;19951;-66
2022/08/26 14:40:43;;;;;;;;;;;;;;;;;;10503536;28;19928;-66
2022/08/26 14:45:46;;;;;;;;;;;;;;;;;;10502985;28;20393;-66
2022/08/26 14:50:48;;;;;;;;;;;;;;;;;;10503153;28;19925;-67
2022/08/26 14:55:50;;;;;;;;;;;;;;;;;;10502876;28;19925;-66
2022/08/26 15:00:52;;;;;;;;;;;;;;;;;;10502734;28;19924;-66
2022/08/26 15:05:54;;;;;;;;;;;;;;;;;;10501769;28;20367;-67
2022/08/26 15:10:56;;;;;;;;;;;;;;;;;;10502017;28;19932;-67
2022/08/26 15:15:58;;;;;;;;;;;;;;;;;;10502044;28;19928;-67
2022/08/26 15:21:00;;;;;;;;;;;;;;;;;;10502377;28;20007;-67
2022/08/26 15:26:02;;;;;;;;;;;;;;;;;;10501501;28;19976;-66
2022/08/26 15:31:05;;;;;;;;;;;;;;;;;;10500882;28;19924;-66
2022/08/26 15:36:07;;;;;;;;;;;;;;;;;;10500584;28;19925;-67
2022/08/26 15:41:09;;;;;;;;;;;;;;;;;;10500359;28;20473;-66
2022/08/26 15:46:11;;;;;;;;;;;;;;;;;;10500707;28;19928;-67
2022/08/26 15:51:14;;;;;;;;;;;;;;;;;;10500559;28;19928;-67
2022/08/26 15:56:16;;;;;;;;;;;;;;;;;;10499777;28;19933;-66
2022/08/26 16:01:18;;;;;;;;;;;;;;;;;;10499582;28;20363;-66
2022/08/26 16:06:28;;;;;;;;;;;;;;;;;;10499971;28;19971;-67
2022/08/26 16:11:30;;;;;;;;;;;;;;;;;;10499267;28;20375;-67
2022/08/26 16:16:32;;;;;;;;;;;;;;;;;;10499688;28;20016;-67
2022/08/26 16:21:34;;;;;;;;;;;;;;;;;;10499039;28;20003;-66
2022/08/26 16:26:37;;;;;;;;;;;;;;;;;;10499610;28;19930;-66
2022/08/26 16:31:39;;;;;;;;;;;;;;;;;;10498835;28;20283;-67
2022/08/26 16:36:41;;;;;;;;;;;;;;;;;;10499201;28;19929;-66
2022/08/26 16:41:43;;;;;;;;;;;;;;;;;;10499078;28;19924;-67
2022/08/26 16:46:45;;;;;;;;;;;;;;;;;;10498908;28;19938;-66
2022/08/26 16:51:47;;;;;;;;;;;;;;;;;;10498896;28;19924;-67
2022/08/26 16:56:49;;;;;;;;;;;;;;;;;;10497964;28;20371;-64
2022/08/26 17:01:51;;;;;;;;;;;;;;;;;;10498557;28;19958;-64
2022/08/26 17:06:53;;;;;;;;;;;;;;;;;;10497576;28;19925;-64
2022/08/26 17:11:56;;;;;;;;;;;;;;;;;;10497807;28;20358;-66
2022/08/26 17:16:58;;;;;;;;;;;;;;;;;;10497756;28;19936;-66
2022/08/26 17:22:00;;;;;;;;;;;;;;;;;;10498276;28;19932;-66
2022/08/26 17:27:02;;;;;;;;;;;;;;;;;;10498132;28;19936;-65
2022/08/26 17:32:04;;;;;;;;;;;;;;;;;;10497296;28;20275;-66
2022/08/26 17:37:07;;;;;;;;;;;;;;;;;;10504604;28;19925;-66
2022/08/26 17:42:10;;;;;;;;;;;;;;;;;;10505147;28;19924;-65
2022/08/26 17:47:12;;;;;;;;;;;;;;;;;;10505034;28;20291;-66
2022/08/26 17:52:14;;;;;;;;;;;;;;;;;;10505335;28;19931;-66
2022/08/26 17:57:17;;;;;;;;;;;;;;;;;;10505213;28;19928;-65
2022/08/26 18:02:19;;;;;;;;;;;;;;;;;;10504362;28;19946;-65
2022/08/26 18:07:21;;;;;;;;;;;;;;;;;;10504075;28;20334;-65
2022/08/26 18:12:24;;;;;;;;;;;;;;;;;;10504618;28;19931;-65
2022/08/26 18:17:27;;;;;;;;;;;;;;;;;;10503871;28;20010;-65
2022/08/26 18:22:29;;;;;;;;;;;;;;;;;;10503678;28;19947;-66
2022/08/26 18:27:31;;;;;;;;;;;;;;;;;;10503367;28;19928;-65
2022/08/26 18:32:34;;;;;;;;;;;;;;;;;;10503682;28;19924;-65
2022/08/26 18:37:36;;;;;;;;;;;;;;;;;;10503045;28;20368;-65
2022/08/26 18:42:38;;;;;;;;;;;;;;;;;;10502850;28;19924;-65
2022/08/26 18:47:40;;;;;;;;;;;;;;;;;;10501980;28;20386;-65
2022/08/26 18:52:42;;;;;;;;;;;;;;;;;;10503092;28;19928;-65
2022/08/26 18:57:44;;;;;;;;;;;;;;;;;;10502275;28;19925;-65
2022/08/26 19:02:48;;;;;;;;;;;;;;;;;;10502209;28;19924;-65
2022/08/26 19:07:53;;;;;;;;;;;;;;;;;;10502452;28;20018;-65
2022/08/26 19:12:56;;;;;;;;;;;;;;;;;;10501651;28;19951;-65
2022/08/26 19:18:01;;;;;;;;;;;;;;;;;;10484831;28;19924;-65
2022/08/26 19:23:03;;;;;;;;;;;;;;;;;;10501919;28;19931;-65
2022/08/26 19:28:11;;;;;;;;;;;;;;;;;;10501563;28;19931;-63
2022/08/26 19:33:13;;;;;;;;;;;;;;;;;;10500625;28;20398;-63
2022/08/26 19:38:15;;;;;;;;;;;;;;;;;;10500529;28;20360;-63
2022/08/26 19:43:17;;;;;;;;;;;;;;;;;;10482980;28;19932;-63
2022/08/26 19:48:19;;;;;;;;;;;;;;;;;;10500730;28;19931;-63
2022/08/26 19:53:22;;;;;;;;;;;;;;;;;;10500150;28;19928;-63
2022/08/26 19:58:24;;;;;;;;;;;;;;;;;;10498882;28;20371;-63
2022/08/26 20:03:26;;;;;;;;;;;;;;;;;;10500214;28;19925;-63
2022/08/26 20:08:28;;;;;;;;;;;;;;;;;;10499534;28;20477;-63
2022/08/26 20:13:30;;;;;;;;;;;;;;;;;;10499907;28;19932;-63
2022/08/26 20:23:53;;;;;;;;;;;;;;;;;;10499918;28;19930;-63
2022/08/26 20:28:55;;;;;;;;;;;;;;;;;;10499208;28;19931;-63
2022/08/26 20:33:57;;;;;;;;;;;;;;;;;;10499214;28;20394;-63
2022/08/26 20:38:59;;;;;;;;;;;;;;;;;;10499211;28;19924;-63
2022/08/26 20:44:02;;;;;;;;;;;;;;;;;;10498407;28;20323;-63
2022/08/26 20:49:04;;;;;;;;;;;;;;;;;;10498850;28;19924;-63
2022/08/26 20:54:07;;;;;;;;;;;;;;;;;;10481096;28;19955;-63
2022/08/26 20:59:09;;;;;;;;;;;;;;;;;;10498127;28;20372;-63
2022/08/26 21:04:11;;;;;;;;;;;;;;;;;;10498678;28;19930;-63
2022/08/26 21:09:13;;;;;;;;;;;;;;;;;;10500160;28;19964;-63
2022/08/26 21:14:15;;;;;;;;;;;;;;;;;;10488626;28;19928;-63
2022/08/26 21:19:18;;;;;;;;;;;;;;;;;;10506722;28;19924;-63
2022/08/26 21:24:20;;;;;;;;;;;;;;;;;;10505933;28;20299;-63
2022/08/26 21:29:22;;;;;;;;;;;;;;;;;;10506024;28;19924;-63
2022/08/26 21:34:25;;;;;;;;;;;;;;;;;;10506217;28;19939;-64
2022/08/26 21:39:27;;;;;;;;;;;;;;;;;;10506024;28;20291;-65
2022/08/26 21:44:29;;;;;;;;;;;;;;;;;;10505774;28;20371;-65
2022/08/26 21:49:31;;;;;;;;;;;;;;;;;;10505446;28;19925;-65
2022/08/26 21:54:33;;;;;;;;;;;;;;;;;;10505325;28;19929;-65
2022/08/26 21:59:35;;;;;;;;;;;;;;;;;;10504557;28;19928;-65
2022/08/26 22:04:38;;;;;;;;;;;;;;;;;;10504515;28;19924;-65
2022/08/26 22:09:40;;;;;;;;;;;;;;;;;;10504967;28;19925;-65
2022/08/26 22:14:42;;;;;;;;;;;;;;;;;;10504011;28;19935;-65
2022/08/26 22:19:44;;;;;;;;;;;;;;;;;;10503696;28;19925;-65
2022/08/26 22:24:47;;;;;;;;;;;;;;;;;;10503978;28;19978;-65
2022/08/26 22:29:50;;;;;;;;;;;;;;;;;;10503714;28;19924;-65
2022/08/26 22:34:52;;;;;;;;;;;;;;;;;;10503929;28;19947;-64
2022/08/26 22:39:54;;;;;;;;;;;;;;;;;;10503051;28;20280;-65
2022/08/26 22:44:56;;;;;;;;;;;;;;;;;;10485994;28;19972;-65
2022/08/26 22:49:58;;;;;;;;;;;;;;;;;;10503130;28;19931;-65
2022/08/26 22:55:00;;;;;;;;;;;;;;;;;;10503076;28;19924;-65
2022/08/26 23:00:02;;;;;;;;;;;;;;;;;;10502229;28;19928;-65
2022/08/26 23:05:04;;;;;;;;;;;;;;;;;;10502648;28;19924;-65
2022/08/26 23:10:06;;;;;;;;;;;;;;;;;;10502316;28;19925;-65
2022/08/26 23:15:09;;;;;;;;;;;;;;;;;;10501479;28;20265;-65
2022/08/26 23:20:11;;;;;;;;;;;;;;;;;;10484764;28;19932;-65
2022/08/26 23:25:13;;;;;;;;;;;;;;;;;;10501681;28;19930;-65
2022/08/26 23:30:15;;;;;;;;;;;;;;;;;;10501273;28;19924;-65
2022/08/26 23:35:20;;;;;;;;;;;;;;;;;;10501155;28;19932;-65
2022/08/26 23:40:24;;;;;;;;;;;;;;;;;;10483505;28;19975;-65
2022/08/26 23:45:26;;;;;;;;;;;;;;;;;;10500902;28;19970;-65
2022/08/26 23:55:50;;;;;;;;;;;;;;;;;;10469772;28;19924;-65
